createdAt,value
2023-02-16T00:02:07.826Z,18.25
2023-02-16T00:07:12.402Z,16.50
2023-02-16T00:12:37.931Z,18.50
2023-02-16T00:17:42.549Z,15.75
2023-02-16T00:22:46.966Z,16.50
2023-02-16T00:27:51.612Z,15.50
2023-02-16T00:32:56.409Z,15.50
2023-02-16T00:38:01.188Z,14.50
2023-02-16T00:43:09.437Z,14.25
2023-02-16T00:48:15.076Z,14.25
2023-02-16T00:53:19.638Z,13.25
2023-02-16T00:58:27.363Z,12.00
2023-02-16T01:03:32.449Z,16.25
2023-02-16T01:08:55.249Z,15.25
2023-02-16T01:13:59.831Z,11.50
2023-02-16T01:19:04.617Z,12.25
2023-02-16T01:24:09.389Z,11.50
2023-02-16T01:29:21.407Z,16.75
2023-02-16T01:34:26.863Z,14.00
2023-02-16T01:39:34.240Z,15.50
2023-02-16T01:44:50.457Z,15.75
2023-02-16T01:49:55.050Z,15.00
2023-02-16T01:55:18.448Z,13.00
2023-02-16T02:00:28.970Z,16.00
2023-02-16T02:05:36.563Z,16.00
2023-02-16T02:10:42.275Z,20.25
2023-02-16T02:15:46.905Z,17.25
2023-02-16T02:21:09.810Z,16.25
2023-02-16T02:26:32.708Z,18.50
2023-02-16T02:32:06.258Z,17.25
2023-02-16T02:37:20.704Z,18.25
2023-02-16T02:42:43.536Z,17.00
2023-02-16T02:47:49.260Z,18.50
2023-02-16T02:52:53.980Z,20.00
2023-02-16T02:58:17.158Z,22.00
2023-02-16T03:03:21.792Z,21.75
2023-02-16T03:08:28.310Z,21.75
2023-02-16T03:13:38.245Z,23.00
2023-02-16T03:19:02.178Z,22.00
2023-02-16T03:24:27.281Z,23.50
2023-02-16T03:29:32.197Z,23.25
2023-02-16T03:34:37.777Z,23.50
2023-02-16T03:39:59.659Z,24.00
2023-02-16T03:45:03.789Z,24.00
2023-02-16T03:50:08.243Z,26.50
2023-02-16T03:55:12.357Z,24.00
2023-02-16T04:00:16.558Z,25.00
2023-02-16T04:05:21.200Z,23.75
2023-02-16T04:10:25.350Z,24.00
2023-02-16T04:15:30.779Z,26.00
2023-02-16T04:20:35.810Z,26.25
2023-02-16T04:25:40.006Z,28.75
2023-02-16T04:30:44.244Z,28.25
2023-02-16T04:35:48.406Z,28.75
2023-02-16T04:40:52.555Z,28.25
2023-02-16T04:45:56.627Z,29.00
2023-02-16T04:51:00.744Z,28.75
2023-02-16T04:56:05.020Z,30.25
2023-02-16T05:01:09.292Z,29.25
2023-02-16T05:06:13.527Z,29.75
2023-02-16T05:11:35.834Z,29.50
2023-02-16T05:16:39.894Z,27.75
2023-02-16T05:21:43.985Z,28.00
2023-02-16T05:26:48.057Z,29.25
2023-02-16T05:31:52.414Z,27.50
2023-02-16T05:36:56.561Z,27.75
2023-02-16T05:42:01.391Z,27.00
2023-02-16T05:47:05.600Z,28.75
2023-02-16T05:52:09.678Z,28.75
2023-02-16T05:57:13.781Z,28.75
2023-02-16T06:02:18.004Z,29.00
2023-02-16T06:07:22.097Z,30.75
2023-02-16T06:12:26.212Z,29.00
2023-02-16T06:17:30.592Z,29.00
2023-02-16T06:22:34.767Z,30.25
2023-02-16T06:27:38.912Z,28.75
2023-02-16T06:32:43.156Z,32.00
2023-02-16T06:37:47.229Z,29.50
2023-02-16T06:42:51.844Z,28.75
2023-02-16T06:47:55.900Z,29.00
2023-02-16T06:52:59.941Z,29.50
2023-02-16T06:58:04.670Z,29.75
2023-02-16T07:03:08.780Z,32.00
2023-02-16T07:08:12.906Z,32.00
2023-02-16T07:13:17.167Z,31.25
2023-02-16T07:18:21.324Z,32.00
2023-02-16T07:23:25.442Z,31.75
2023-02-16T07:28:29.732Z,29.50
2023-02-16T07:33:33.927Z,29.25
2023-02-16T07:38:38.649Z,31.00
2023-02-16T07:43:44.075Z,30.00
2023-02-16T07:48:51.595Z,32.00
2023-02-16T07:53:56.014Z,30.25
2023-02-16T07:59:01.446Z,29.75
2023-02-16T08:04:05.677Z,29.75
2023-02-16T08:09:09.776Z,32.00
2023-02-16T08:14:14.806Z,30.25
2023-02-16T08:19:18.820Z,29.00
2023-02-16T08:24:23.096Z,28.75
2023-02-16T08:29:27.193Z,30.25
2023-02-16T08:34:31.736Z,27.25
2023-02-16T08:39:36.582Z,30.25
2023-02-16T08:44:41.083Z,27.25
2023-02-16T08:49:45.801Z,28.00
2023-02-16T08:54:49.913Z,29.00
2023-02-16T09:00:13.732Z,27.00
2023-02-16T09:05:17.915Z,29.50
2023-02-16T09:10:24.886Z,29.00
2023-02-16T09:15:30.057Z,27.00
2023-02-16T09:20:34.062Z,24.75
2023-02-16T09:25:39.819Z,24.00
2023-02-16T09:30:43.975Z,24.00
2023-02-16T09:35:48.031Z,23.25
2023-02-16T09:40:52.001Z,22.75
2023-02-16T09:45:59.940Z,17.75
2023-02-16T09:51:05.853Z,19.25
2023-02-16T09:56:18.054Z,16.50
2023-02-16T10:01:30.169Z,13.75
2023-02-16T10:07:09.195Z,14.00
2023-02-16T10:12:16.621Z,13.75
2023-02-16T10:17:44.937Z,13.00
2023-02-16T10:23:07.672Z,17.00
2023-02-16T10:28:17.946Z,26.00
2023-02-16T10:33:29.088Z,23.50
2023-02-16T10:38:39.219Z,23.00
2023-02-16T10:44:06.330Z,23.25
2023-02-16T10:49:14.020Z,23.25
2023-02-16T10:54:25.899Z,22.50
2023-02-16T10:59:38.989Z,22.00
2023-02-16T11:04:45.072Z,22.00
2023-02-16T11:09:56.890Z,19.50
2023-02-16T11:15:04.709Z,21.75
2023-02-16T11:20:10.711Z,21.50
2023-02-16T11:25:23.891Z,21.50
2023-02-16T11:30:33.907Z,22.00
2023-02-16T11:35:43.524Z,19.25
2023-02-16T11:40:52.871Z,21.75
2023-02-16T11:46:02.017Z,20.25
2023-02-16T11:51:11.398Z,20.00
2023-02-16T11:56:16.040Z,18.75
2023-02-16T12:01:24.554Z,19.50
2023-02-16T12:06:37.597Z,18.00
2023-02-16T12:12:00.473Z,19.00
2023-02-16T12:17:04.940Z,20.25
2023-02-16T12:22:28.154Z,20.50
2023-02-16T12:27:40.208Z,20.50
2023-02-16T12:33:07.660Z,16.50
2023-02-16T12:38:24.260Z,20.00
2023-02-16T12:43:32.542Z,15.75
2023-02-16T12:49:11.787Z,23.50
2023-02-16T12:54:31.684Z,26.25
2023-02-16T12:59:49.512Z,23.50
2023-02-16T13:05:04.364Z,21.75
2023-02-16T13:10:19.951Z,25.75
2023-02-16T13:15:27.496Z,23.75
2023-02-16T13:20:33.421Z,26.50
2023-02-16T13:25:43.779Z,22.50
2023-02-16T13:30:52.234Z,22.75
2023-02-16T13:36:02.919Z,22.50
2023-02-16T13:41:19.242Z,23.25
2023-02-16T13:46:32.736Z,25.25
2023-02-16T13:51:45.478Z,23.75
2023-02-16T13:56:49.653Z,25.50
2023-02-16T14:01:55.616Z,25.00
2023-02-16T14:07:06.460Z,25.75
2023-02-16T14:12:13.758Z,26.75
2023-02-16T14:17:21.255Z,26.00
2023-02-16T14:22:32.395Z,28.00
2023-02-16T14:27:44.492Z,27.25
2023-02-16T14:32:52.600Z,27.00
2023-02-16T14:37:59.990Z,26.25
2023-02-16T14:43:09.306Z,24.50
2023-02-16T14:48:16.558Z,26.50
2023-02-16T14:53:30.137Z,27.00
2023-02-16T14:58:43.890Z,27.00
2023-02-16T15:03:51.551Z,26.75
2023-02-16T15:09:00.822Z,28.75
2023-02-16T15:14:09.298Z,27.75
2023-02-16T15:19:22.217Z,27.75
2023-02-16T15:24:27.751Z,26.25
2023-02-16T15:29:32.627Z,29.50
2023-02-16T15:34:37.892Z,28.25
2023-02-16T15:39:53.515Z,27.25
2023-02-16T15:45:00.835Z,28.75
2023-02-16T15:50:13.775Z,28.25
2023-02-16T15:55:18.583Z,30.00
2023-02-16T16:00:24.506Z,29.00
2023-02-16T16:05:43.402Z,28.00
2023-02-16T16:10:49.484Z,29.00
2023-02-16T16:15:55.545Z,29.25
2023-02-16T16:21:04.003Z,28.25
2023-02-16T16:26:18.694Z,27.00
2023-02-16T16:31:22.919Z,30.00
2023-02-16T16:36:31.738Z,29.75
2023-02-16T16:41:36.024Z,28.00
2023-02-16T16:46:40.660Z,28.75
2023-02-16T16:51:45.465Z,30.50
2023-02-16T16:56:49.700Z,28.00
2023-02-16T17:01:54.133Z,30.25
2023-02-16T17:06:58.302Z,30.00
2023-02-16T17:12:02.587Z,30.00
2023-02-16T17:17:09.848Z,30.00
2023-02-16T17:22:14.580Z,29.50
2023-02-16T17:27:18.788Z,28.00
2023-02-16T17:32:24.812Z,31.25
2023-02-16T17:37:29.077Z,31.00
2023-02-16T17:42:33.161Z,31.50
2023-02-16T17:47:37.185Z,30.25
2023-02-16T17:52:41.584Z,31.00
2023-02-16T17:57:45.671Z,30.75
2023-02-16T18:02:49.837Z,30.75
2023-02-16T18:07:54.185Z,30.25
2023-02-16T18:12:58.707Z,32.50
2023-02-16T18:18:02.784Z,32.00
2023-02-16T18:23:06.854Z,31.75
2023-02-16T18:28:21.321Z,32.75
2023-02-16T18:33:25.752Z,32.00
2023-02-16T18:38:29.844Z,31.50
2023-02-16T18:43:34.040Z,29.50
2023-02-16T18:48:38.333Z,32.00
2023-02-16T18:53:42.375Z,32.00
2023-02-16T18:58:46.672Z,31.25
2023-02-16T19:03:50.729Z,31.25
2023-02-16T19:08:54.866Z,31.75
2023-02-16T19:13:58.964Z,31.00
2023-02-16T19:19:03.212Z,31.25
2023-02-16T19:24:08.441Z,30.00
2023-02-16T19:29:14.110Z,31.25
2023-02-16T19:34:18.362Z,29.50
2023-02-16T19:39:22.399Z,28.00
2023-02-16T19:44:26.416Z,31.00
2023-02-16T19:49:30.720Z,30.00
2023-02-16T19:54:36.932Z,31.00
2023-02-16T19:59:41.068Z,30.50
2023-02-16T20:04:46.138Z,30.25
2023-02-16T20:09:50.107Z,29.00
2023-02-16T20:14:54.193Z,29.00
2023-02-16T20:19:58.437Z,30.75
2023-02-16T20:25:03.540Z,28.75
2023-02-16T20:30:08.913Z,29.50
2023-02-16T20:35:13.672Z,29.50
2023-02-16T20:40:18.243Z,28.75
2023-02-16T20:45:23.461Z,29.00
2023-02-16T20:50:28.058Z,29.25
2023-02-16T20:55:33.094Z,30.25
2023-02-16T21:00:37.702Z,30.25
2023-02-16T21:05:42.394Z,28.00
2023-02-16T21:10:46.718Z,30.00
2023-02-16T21:15:51.239Z,31.00
2023-02-16T21:20:55.693Z,29.00
2023-02-16T21:26:00.993Z,29.00
2023-02-16T21:31:06.755Z,30.00
2023-02-16T21:36:13.358Z,28.00
2023-02-16T21:41:29.923Z,29.25
2023-02-16T21:46:44.887Z,30.00
2023-02-16T21:51:49.997Z,30.00
2023-02-16T21:56:54.592Z,30.50
2023-02-16T22:02:00.300Z,29.50
2023-02-16T22:07:05.000Z,30.00
2023-02-16T22:12:10.000Z,28.75
2023-02-16T22:17:14.679Z,30.00
2023-02-16T22:22:19.146Z,30.00
2023-02-16T22:27:23.719Z,29.50
2023-02-16T22:32:28.367Z,29.25
2023-02-16T22:37:34.169Z,29.75
2023-02-16T22:42:38.861Z,28.75
2023-02-16T22:47:43.778Z,28.75
2023-02-16T22:52:48.411Z,27.00
2023-02-16T22:57:53.535Z,28.00
2023-02-16T23:02:58.049Z,28.50
2023-02-16T23:08:02.685Z,29.00
2023-02-16T23:13:08.439Z,29.25
2023-02-16T23:18:12.942Z,31.75
2023-02-16T23:23:17.514Z,29.50
2023-02-16T23:28:22.042Z,29.50
2023-02-16T23:33:26.696Z,28.25
2023-02-16T23:38:31.224Z,27.75
2023-02-16T23:43:35.766Z,25.75
2023-02-16T23:48:40.134Z,32.50
2023-02-16T23:53:45.216Z,29.75
2023-02-16T23:58:50.365Z,30.00
